sensor_id;sensor_type;location;lat;lon;timestamp;pressure;altitude;pressure_sealevel;temperature;humidity
60375;BME280;70244;48.792;9.172;2024-03-07T05:17:10;97933.96;;;15.87;80.55
60375;BME280;70244;48.792;9.172;2024-03-07T05:19:41;97932.62;;;16.06;79.95
60375;BME280;70244;48.792;9.172;2024-03-07T05:21:15;97934.39;;;16.05;80.10
60375;BME280;70244;48.792;9.172;2024-03-07T05:23:45;97930.80;;;15.91;80.55
60375;BME280;70244;48.792;9.172;2024-03-07T05:26:15;97929.07;;;15.98;80.34
60375;BME280;70244;48.792;9.172;2024-03-07T05:28:45;97929.83;;;16.08;79.93
60375;BME280;70244;48.792;9.172;2024-03-07T05:31:16;97923.17;;;16.05;80.06
60375;BME280;70244;48.792;9.172;2024-03-07T05:33:46;97919.71;;;16.10;79.90
60375;BME280;70244;48.792;9.172;2024-03-07T05:36:17;97920.76;;;16.01;80.18
60375;BME280;70244;48.792;9.172;2024-03-07T05:38:47;97924.39;;;16.04;80.35
60375;BME280;70244;48.792;9.172;2024-03-07T05:41:17;97922.76;;;16.10;80.47
60375;BME280;70244;48.792;9.172;2024-03-07T05:43:48;97921.40;;;16.11;80.62
60375;BME280;70244;48.792;9.172;2024-03-07T05:46:18;97923.74;;;16.07;80.82
60375;BME280;70244;48.792;9.172;2024-03-07T05:48:48;97922.13;;;16.15;80.59
60375;BME280;70244;48.792;9.172;2024-03-07T05:51:19;97926.86;;;16.28;80.39
60375;BME280;70244;48.792;9.172;2024-03-07T05:53:49;97918.49;;;16.57;79.41
60375;BME280;70244;48.792;9.172;2024-03-07T05:56:20;97920.96;;;16.63;79.10
60375;BME280;70244;48.792;9.172;2024-03-07T05:58:51;97923.61;;;16.91;78.33
60375;BME280;70244;48.792;9.172;2024-03-07T06:01:21;97922.16;;;16.85;79.87
60375;BME280;70244;48.792;9.172;2024-03-07T06:03:52;97919.99;;;17.21;78.04
60375;BME280;70244;48.792;9.172;2024-03-07T06:06:23;97920.71;;;17.36;78.20
60375;BME280;70244;48.792;9.172;2024-03-07T06:08:53;97919.01;;;17.53;75.78
60375;BME280;70244;48.792;9.172;2024-03-07T06:11:23;97925.76;;;17.76;75.18
60375;BME280;70244;48.792;9.172;2024-03-07T06:13:54;97923.34;;;17.68;75.49
60375;BME280;70244;48.792;9.172;2024-03-07T06:16:24;97924.33;;;17.69;75.55
60375;BME280;70244;48.792;9.172;2024-03-07T06:18:55;97922.15;;;17.68;76.19
60375;BME280;70244;48.792;9.172;2024-03-07T06:21:25;97921.98;;;17.74;76.43
60375;BME280;70244;48.792;9.172;2024-03-07T06:23:56;97923.71;;;17.73;76.73
60375;BME280;70244;48.792;9.172;2024-03-07T06:26:28;97921.27;;;17.92;76.30
60375;BME280;70244;48.792;9.172;2024-03-07T06:28:57;97920.01;;;17.92;76.02
60375;BME280;70244;48.792;9.172;2024-03-07T06:31:28;97920.58;;;17.90;76.25
60375;BME280;70244;48.792;9.172;2024-03-07T06:33:59;97920.33;;;18.06;75.58
60375;BME280;70244;48.792;9.172;2024-03-07T06:36:29;97916.16;;;17.99;75.52
60375;BME280;70244;48.792;9.172;2024-03-07T06:38:59;97915.69;;;18.06;74.63
60375;BME280;70244;48.792;9.172;2024-03-07T06:41:29;97914.50;;;18.07;74.57
60375;BME280;70244;48.792;9.172;2024-03-07T06:44:00;97914.12;;;18.00;74.71
60375;BME280;70244;48.792;9.172;2024-03-07T06:46:30;97916.02;;;17.99;74.72
60375;BME280;70244;48.792;9.172;2024-03-07T06:49:01;97916.71;;;18.07;74.41
60375;BME280;70244;48.792;9.172;2024-03-07T06:51:31;97922.21;;;17.97;74.65
60375;BME280;70244;48.792;9.172;2024-03-07T06:54:01;97919.77;;;18.02;74.48
60375;BME280;70244;48.792;9.172;2024-03-07T06:56:32;97923.14;;;18.00;74.57
60375;BME280;70244;48.792;9.172;2024-03-07T06:59:02;97928.70;;;17.95;74.75
60375;BME280;70244;48.792;9.172;2024-03-07T07:01:32;97931.87;;;17.88;74.95
60375;BME280;70244;48.792;9.172;2024-03-07T07:04:02;97930.76;;;17.81;75.15
60375;BME280;70244;48.792;9.172;2024-03-07T07:06:32;97933.64;;;17.78;75.25
60375;BME280;70244;48.792;9.172;2024-03-07T07:09:03;97934.29;;;17.76;75.36
60375;BME280;70244;48.792;9.172;2024-03-07T07:11:33;97930.14;;;17.72;75.42
60375;BME280;70244;48.792;9.172;2024-03-07T07:14:03;97931.28;;;17.67;75.63
60375;BME280;70244;48.792;9.172;2024-03-07T07:16:34;97930.46;;;17.73;75.45
60375;BME280;70244;48.792;9.172;2024-03-07T07:19:04;97927.57;;;17.61;75.81
60375;BME280;70244;48.792;9.172;2024-03-07T07:21:35;97927.22;;;17.59;75.88
60375;BME280;70244;48.792;9.172;2024-03-07T07:24:06;97929.71;;;17.70;75.57
60375;BME280;70244;48.792;9.172;2024-03-07T07:26:36;97927.68;;;17.73;75.52
60375;BME280;70244;48.792;9.172;2024-03-07T07:29:07;97924.62;;;17.59;75.89
60375;BME280;70244;48.792;9.172;2024-03-07T07:31:37;97920.66;;;17.52;76.04
60375;BME280;70244;48.792;9.172;2024-03-07T07:34:07;97919.64;;;17.52;76.12
60375;BME280;70244;48.792;9.172;2024-03-07T07:36:37;97920.88;;;17.48;76.22
60375;BME280;70244;48.792;9.172;2024-03-07T07:39:07;97919.77;;;17.42;76.48
60375;BME280;70244;48.792;9.172;2024-03-07T07:41:38;97918.33;;;17.38;76.64
60375;BME280;70244;48.792;9.172;2024-03-07T07:44:09;97915.09;;;17.41;76.57
60375;BME280;70244;48.792;9.172;2024-03-07T07:46:39;97914.81;;;17.41;76.57
60375;BME280;70244;48.792;9.172;2024-03-07T07:49:09;97913.00;;;17.35;76.77
60375;BME280;70244;48.792;9.172;2024-03-07T07:51:39;97911.54;;;17.32;76.87
60375;BME280;70244;48.792;9.172;2024-03-07T07:54:10;97908.70;;;17.20;77.20
60375;BME280;70244;48.792;9.172;2024-03-07T07:56:40;97907.73;;;17.30;76.94
60375;BME280;70244;48.792;9.172;2024-03-07T07:59:11;97904.46;;;17.30;76.98
60375;BME280;70244;48.792;9.172;2024-03-07T08:01:41;97904.14;;;17.35;76.82
60375;BME280;70244;48.792;9.172;2024-03-07T08:04:12;97907.37;;;17.24;77.11
60375;BME280;70244;48.792;9.172;2024-03-07T08:06:43;97903.57;;;17.32;76.91
60375;BME280;70244;48.792;9.172;2024-03-07T08:09:13;97903.99;;;17.24;77.15
60375;BME280;70244;48.792;9.172;2024-03-07T08:11:43;97900.02;;;17.27;77.09
60375;BME280;70244;48.792;9.172;2024-03-07T08:14:14;97904.60;;;17.31;76.92
60375;BME280;70244;48.792;9.172;2024-03-07T08:16:44;97899.97;;;17.38;76.74
60375;BME280;70244;48.792;9.172;2024-03-07T08:19:15;97899.17;;;17.24;77.16
60375;BME280;70244;48.792;9.172;2024-03-07T08:21:45;97897.92;;;17.22;77.15
60375;BME280;70244;48.792;9.172;2024-03-07T08:24:15;97898.17;;;17.18;77.29
60375;BME280;70244;48.792;9.172;2024-03-07T08:26:46;97896.42;;;17.10;77.55
60375;BME280;70244;48.792;9.172;2024-03-07T08:29:16;97895.84;;;17.07;77.61
60375;BME280;70244;48.792;9.172;2024-03-07T08:31:47;97896.37;;;17.10;77.53
60375;BME280;70244;48.792;9.172;2024-03-07T08:34:17;97896.90;;;17.10;77.53
60375;BME280;70244;48.792;9.172;2024-03-07T08:36:47;97894.21;;;17.09;77.57
60375;BME280;70244;48.792;9.172;2024-03-07T08:39:18;97891.46;;;17.06;77.58
60375;BME280;70244;48.792;9.172;2024-03-07T08:41:48;97894.03;;;17.03;77.64
60375;BME280;70244;48.792;9.172;2024-03-07T08:44:18;97893.23;;;17.09;77.37
60375;BME280;70244;48.792;9.172;2024-03-07T08:46:48;97894.72;;;16.97;77.74
60375;BME280;70244;48.792;9.172;2024-03-07T08:49:18;97896.70;;;17.05;77.45
60375;BME280;70244;48.792;9.172;2024-03-07T08:51:48;97892.59;;;17.01;77.50
60375;BME280;70244;48.792;9.172;2024-03-07T08:54:19;97893.27;;;16.96;77.57
60375;BME280;70244;48.792;9.172;2024-03-07T08:56:50;97891.21;;;16.95;77.60
60375;BME280;70244;48.792;9.172;2024-03-07T08:59:20;97890.30;;;17.02;77.32
60375;BME280;70244;48.792;9.172;2024-03-07T09:01:51;97890.88;;;16.98;77.35
60375;BME280;70244;48.792;9.172;2024-03-07T09:04:21;97890.10;;;16.94;77.47
60375;BME280;70244;48.792;9.172;2024-03-07T09:06:51;97884.51;;;16.98;77.28
60375;BME280;70244;48.792;9.172;2024-03-07T09:09:22;97886.53;;;16.98;77.25
60375;BME280;70244;48.792;9.172;2024-03-07T09:11:52;97884.72;;;16.90;77.40
60375;BME280;70244;48.792;9.172;2024-03-07T09:14:23;97879.67;;;16.94;77.27
60375;BME280;70244;48.792;9.172;2024-03-07T09:16:54;97878.00;;;16.90;77.32
60375;BME280;70244;48.792;9.172;2024-03-07T09:19:24;97876.12;;;16.90;77.36
60375;BME280;70244;48.792;9.172;2024-03-07T09:21:55;97877.20;;;16.95;77.20
60375;BME280;70244;48.792;9.172;2024-03-07T09:24:25;97875.94;;;16.95;77.05
60375;BME280;70244;48.792;9.172;2024-03-07T09:26:56;97873.12;;;17.02;76.78
60375;BME280;70244;48.792;9.172;2024-03-07T09:29:26;97872.66;;;17.03;76.79
60375;BME280;70244;48.792;9.172;2024-03-07T09:31:57;97867.98;;;17.03;76.78
60375;BME280;70244;48.792;9.172;2024-03-07T09:34:27;97869.82;;;17.13;76.33
60375;BME280;70244;48.792;9.172;2024-03-07T09:36:58;97866.65;;;17.04;76.59
60375;BME280;70244;48.792;9.172;2024-03-07T09:39:28;97863.54;;;17.08;76.44
60375;BME280;70244;48.792;9.172;2024-03-07T09:41:59;97867.82;;;17.14;76.27
60375;BME280;70244;48.792;9.172;2024-03-07T09:44:31;97864.95;;;17.07;76.39
60375;BME280;70244;48.792;9.172;2024-03-07T09:47:00;97865.47;;;17.12;76.22
60375;BME280;70244;48.792;9.172;2024-03-07T09:49:32;97864.16;;;17.09;76.27
60375;BME280;70244;48.792;9.172;2024-03-07T09:52:04;97862.21;;;17.05;76.37
60375;BME280;70244;48.792;9.172;2024-03-07T09:54:31;97864.08;;;17.11;76.18
60375;BME280;70244;48.792;9.172;2024-03-07T09:57:03;97864.04;;;17.17;75.96
60375;BME280;70244;48.792;9.172;2024-03-07T09:59:35;97859.88;;;17.05;76.27
60375;BME280;70244;48.792;9.172;2024-03-07T10:02:05;97862.99;;;17.08;76.16
60375;BME280;70244;48.792;9.172;2024-03-07T10:04:38;97863.96;;;17.10;76.10
60375;BME280;70244;48.792;9.172;2024-03-07T10:07:04;97858.12;;;17.15;75.89
60375;BME280;70244;48.792;9.172;2024-03-07T10:09:36;97861.57;;;17.09;75.99
60375;BME280;70244;48.792;9.172;2024-03-07T10:12:06;97857.69;;;17.08;76.02
60375;BME280;70244;48.792;9.172;2024-03-07T10:14:36;97860.66;;;17.08;75.99
60375;BME280;70244;48.792;9.172;2024-03-07T10:17:06;97858.61;;;17.14;75.82
60375;BME280;70244;48.792;9.172;2024-03-07T10:19:37;97857.77;;;17.16;75.70
60375;BME280;70244;48.792;9.172;2024-03-07T10:22:07;97853.36;;;17.14;75.75
60375;BME280;70244;48.792;9.172;2024-03-07T10:24:38;97854.71;;;17.14;75.76
60375;BME280;70244;48.792;9.172;2024-03-07T10:27:08;97854.02;;;17.03;76.03
60375;BME280;70244;48.792;9.172;2024-03-07T10:29:39;97855.56;;;16.96;76.29
60375;BME280;70244;48.792;9.172;2024-03-07T10:32:11;97854.22;;;16.85;76.72
60375;BME280;70244;48.792;9.172;2024-03-07T10:34:40;97853.03;;;16.81;76.75
60375;BME280;70244;48.792;9.172;2024-03-07T10:37:11;97853.25;;;16.96;76.34
60375;BME280;70244;48.792;9.172;2024-03-07T10:39:42;97852.04;;;17.01;76.23
60375;BME280;70244;48.792;9.172;2024-03-07T10:42:14;97848.87;;;17.14;75.74
60375;BME280;70244;48.792;9.172;2024-03-07T10:44:44;97845.96;;;17.17;75.69
60375;BME280;70244;48.792;9.172;2024-03-07T10:47:16;97847.39;;;17.26;75.36
60375;BME280;70244;48.792;9.172;2024-03-07T10:49:54;97847.07;;;17.30;75.25
60375;BME280;70244;48.792;9.172;2024-03-07T10:52:22;97844.39;;;17.31;75.17
60375;BME280;70244;48.792;9.172;2024-03-07T10:54:56;97840.43;;;17.26;75.34
60375;BME280;70244;48.792;9.172;2024-03-07T10:57:23;97840.21;;;17.25;75.35
60375;BME280;70244;48.792;9.172;2024-03-07T10:59:50;97839.31;;;17.37;74.95
60375;BME280;70244;48.792;9.172;2024-03-07T11:02:27;97840.71;;;17.29;75.05
60375;BME280;70244;48.792;9.172;2024-03-07T11:04:47;97837.78;;;17.31;75.11
60375;BME280;70244;48.792;9.172;2024-03-07T11:07:19;97832.27;;;17.42;74.66
60375;BME280;70244;48.792;9.172;2024-03-07T11:09:49;97829.66;;;17.32;74.95
60375;BME280;70244;48.792;9.172;2024-03-07T11:12:21;97831.42;;;17.30;74.99
60375;BME280;70244;48.792;9.172;2024-03-07T11:14:51;97827.51;;;17.33;74.86
60375;BME280;70244;48.792;9.172;2024-03-07T11:17:21;97824.61;;;17.36;74.74
60375;BME280;70244;48.792;9.172;2024-03-07T11:19:50;97819.69;;;17.36;74.71
60375;BME280;70244;48.792;9.172;2024-03-07T11:22:28;97816.45;;;17.39;74.53
60375;BME280;70244;48.792;9.172;2024-03-07T11:25:00;97810.51;;;17.44;74.43
60375;BME280;70244;48.792;9.172;2024-03-07T11:27:22;97808.95;;;17.45;74.36
60375;BME280;70244;48.792;9.172;2024-03-07T11:29:53;97801.26;;;17.43;74.22
60375;BME280;70244;48.792;9.172;2024-03-07T11:32:23;97798.58;;;17.45;74.21
60375;BME280;70244;48.792;9.172;2024-03-07T11:34:54;97796.37;;;17.45;74.20
60375;BME280;70244;48.792;9.172;2024-03-07T11:39:54;97785.40;;;17.47;74.09
60375;BME280;70244;48.792;9.172;2024-03-07T11:42:25;97783.97;;;17.52;73.89
60375;BME280;70244;48.792;9.172;2024-03-07T11:44:55;97781.14;;;17.49;74.09
60375;BME280;70244;48.792;9.172;2024-03-07T11:47:34;97779.10;;;17.44;74.14
60375;BME280;70244;48.792;9.172;2024-03-07T11:49:56;97778.69;;;17.43;74.16
60375;BME280;70244;48.792;9.172;2024-03-07T11:52:27;97774.30;;;17.46;74.09
60375;BME280;70244;48.792;9.172;2024-03-07T11:54:57;97773.14;;;17.42;74.24
60375;BME280;70244;48.792;9.172;2024-03-07T11:57:28;97770.62;;;17.46;73.99
60375;BME280;70244;48.792;9.172;2024-03-07T11:59:59;97770.99;;;17.47;73.95
60375;BME280;70244;48.792;9.172;2024-03-07T12:02:29;97766.92;;;17.49;73.91
60375;BME280;70244;48.792;9.172;2024-03-07T12:04:59;97767.00;;;17.40;74.08
60375;BME280;70244;48.792;9.172;2024-03-07T12:07:29;97767.16;;;17.53;73.63
60375;BME280;70244;48.792;9.172;2024-03-07T12:10:00;97759.99;;;17.62;73.55
60375;BME280;70244;48.792;9.172;2024-03-07T12:12:31;97758.48;;;17.67;73.38
60375;BME280;70244;48.792;9.172;2024-03-07T12:15:02;97759.56;;;17.57;73.44
60375;BME280;70244;48.792;9.172;2024-03-07T12:17:32;97755.38;;;17.50;73.69
60375;BME280;70244;48.792;9.172;2024-03-07T12:20:03;97751.78;;;17.57;73.56
60375;BME280;70244;48.792;9.172;2024-03-07T12:22:33;97750.46;;;17.66;73.32
60375;BME280;70244;48.792;9.172;2024-03-07T12:25:04;97750.09;;;17.72;72.98
60375;BME280;70244;48.792;9.172;2024-03-07T12:27:34;97750.45;;;17.68;73.08
60375;BME280;70244;48.792;9.172;2024-03-07T12:30:14;97753.37;;;17.75;72.97
60375;BME280;70244;48.792;9.172;2024-03-07T12:32:35;97753.40;;;17.77;72.83
60375;BME280;70244;48.792;9.172;2024-03-07T12:35:06;97747.38;;;17.61;73.27
60375;BME280;70244;48.792;9.172;2024-03-07T12:37:36;97742.52;;;17.54;73.48
60375;BME280;70244;48.792;9.172;2024-03-07T12:40:11;97746.09;;;17.60;73.24
60375;BME280;70244;48.792;9.172;2024-03-07T12:42:36;97744.45;;;17.62;73.21
60375;BME280;70244;48.792;9.172;2024-03-07T12:45:07;97743.52;;;17.56;73.39
60375;BME280;70244;48.792;9.172;2024-03-07T12:47:37;97739.13;;;17.50;73.39
60375;BME280;70244;48.792;9.172;2024-03-07T12:50:09;97737.35;;;17.55;73.33
60375;BME280;70244;48.792;9.172;2024-03-07T12:52:38;97735.67;;;17.51;73.45
60375;BME280;70244;48.792;9.172;2024-03-07T12:55:08;97737.27;;;17.60;73.21
60375;BME280;70244;48.792;9.172;2024-03-07T12:57:39;97734.31;;;17.49;73.48
60375;BME280;70244;48.792;9.172;2024-03-07T13:00:11;97737.98;;;17.68;72.94
60375;BME280;70244;48.792;9.172;2024-03-07T13:02:41;97734.05;;;17.64;73.00
60375;BME280;70244;48.792;9.172;2024-03-07T13:05:12;97731.03;;;17.56;73.23
60375;BME280;70244;48.792;9.172;2024-03-07T13:07:42;97728.59;;;17.51;73.29
60375;BME280;70244;48.792;9.172;2024-03-07T13:10:13;97728.68;;;17.45;73.48
60375;BME280;70244;48.792;9.172;2024-03-07T13:12:43;97732.28;;;17.34;73.77
60375;BME280;70244;48.792;9.172;2024-03-07T13:15:14;97730.06;;;17.36;73.73
60375;BME280;70244;48.792;9.172;2024-03-07T13:17:44;97729.44;;;17.42;73.51
60375;BME280;70244;48.792;9.172;2024-03-07T13:20:15;97730.81;;;17.43;73.49
60375;BME280;70244;48.792;9.172;2024-03-07T13:22:45;97730.74;;;17.34;73.66
60375;BME280;70244;48.792;9.172;2024-03-07T13:25:19;97725.52;;;17.42;73.36
60375;BME280;70244;48.792;9.172;2024-03-07T13:27:54;97720.43;;;17.41;73.29
60375;BME280;70244;48.792;9.172;2024-03-07T13:30:16;97721.78;;;17.33;73.46
60375;BME280;70244;48.792;9.172;2024-03-07T13:32:47;97722.06;;;17.28;73.59
60375;BME280;70244;48.792;9.172;2024-03-07T13:35:19;97722.83;;;17.22;73.71
60375;BME280;70244;48.792;9.172;2024-03-07T13:37:50;97725.62;;;17.14;73.93
60375;BME280;70244;48.792;9.172;2024-03-07T13:40:19;97727.95;;;17.21;73.75
60375;BME280;70244;48.792;9.172;2024-03-07T13:42:51;97720.41;;;17.19;73.82
60375;BME280;70244;48.792;9.172;2024-03-07T13:45:22;97721.82;;;17.12;74.00
60375;BME280;70244;48.792;9.172;2024-03-07T13:47:51;97717.32;;;17.14;73.97
60375;BME280;70244;48.792;9.172;2024-03-07T13:50:23;97716.47;;;17.15;73.91
60375;BME280;70244;48.792;9.172;2024-03-07T13:52:52;97714.95;;;17.13;73.96
60375;BME280;70244;48.792;9.172;2024-03-07T13:55:23;97715.56;;;17.09;74.09
60375;BME280;70244;48.792;9.172;2024-03-07T13:57:56;97716.87;;;17.11;74.00
60375;BME280;70244;48.792;9.172;2024-03-07T14:00:32;97712.74;;;17.10;74.13
60375;BME280;70244;48.792;9.172;2024-03-07T14:05:41;97709.26;;;17.07;74.08
60375;BME280;70244;48.792;9.172;2024-03-07T14:23:06;97694.97;;;17.26;73.49
60375;BME280;70244;48.792;9.172;2024-03-07T14:28:13;97691.72;;;17.16;73.72
60375;BME280;70244;48.792;9.172;2024-03-07T14:30:38;97687.50;;;17.23;73.45
60375;BME280;70244;48.792;9.172;2024-03-07T14:33:01;97684.13;;;17.16;73.65
60375;BME280;70244;48.792;9.172;2024-03-07T14:35:35;97681.98;;;17.18;73.63
60375;BME280;70244;48.792;9.172;2024-03-07T14:38:06;97680.15;;;17.16;73.75
60375;BME280;70244;48.792;9.172;2024-03-07T14:40:32;97681.49;;;17.11;73.83
60375;BME280;70244;48.792;9.172;2024-03-07T14:43:04;97684.90;;;17.10;73.79
60375;BME280;70244;48.792;9.172;2024-03-07T14:45:37;97681.11;;;17.20;73.52
60375;BME280;70244;48.792;9.172;2024-03-07T14:48:04;97681.91;;;17.10;73.81
60375;BME280;70244;48.792;9.172;2024-03-07T14:50:35;97677.27;;;17.11;73.76
60375;BME280;70244;48.792;9.172;2024-03-07T14:53:05;97677.13;;;17.14;73.74
60375;BME280;70244;48.792;9.172;2024-03-07T14:55:36;97676.28;;;17.13;73.66
60375;BME280;70244;48.792;9.172;2024-03-07T14:58:05;97676.62;;;17.05;73.89
60375;BME280;70244;48.792;9.172;2024-03-07T15:00:37;97668.62;;;17.16;73.49
60375;BME280;70244;48.792;9.172;2024-03-07T15:03:08;97666.64;;;17.09;73.65
60375;BME280;70244;48.792;9.172;2024-03-07T15:05:37;97665.56;;;17.23;73.30
60375;BME280;70244;48.792;9.172;2024-03-07T15:08:08;97664.15;;;17.22;73.26
60375;BME280;70244;48.792;9.172;2024-03-07T15:10:43;97660.29;;;17.11;73.56
60375;BME280;70244;48.792;9.172;2024-03-07T15:13:09;97659.14;;;17.25;73.16
60375;BME280;70244;48.792;9.172;2024-03-07T15:15:39;97660.86;;;17.12;73.53
60375;BME280;70244;48.792;9.172;2024-03-07T15:18:11;97658.55;;;17.34;72.88
60375;BME280;70244;48.792;9.172;2024-03-07T15:20:40;97658.76;;;17.35;72.84
60375;BME280;70244;48.792;9.172;2024-03-07T15:23:11;97658.17;;;17.38;72.74
60375;BME280;70244;48.792;9.172;2024-03-07T15:25:41;97656.52;;;17.29;73.00
60375;BME280;70244;48.792;9.172;2024-03-07T15:28:12;97655.09;;;16.90;74.21
60375;BME280;70244;48.792;9.172;2024-03-07T15:30:42;97653.68;;;17.02;73.93
60375;BME280;70244;48.792;9.172;2024-03-07T15:33:13;97652.52;;;17.13;73.57
60375;BME280;70244;48.792;9.172;2024-03-07T15:35:44;97650.43;;;17.19;73.36
60375;BME280;70244;48.792;9.172;2024-03-07T15:38:14;97649.63;;;17.19;73.41
60375;BME280;70244;48.792;9.172;2024-03-07T15:40:45;97649.77;;;17.31;73.02
60375;BME280;70244;48.792;9.172;2024-03-07T15:43:15;97649.64;;;17.33;73.00
60375;BME280;70244;48.792;9.172;2024-03-07T15:45:45;97644.67;;;17.32;73.02
60375;BME280;70244;48.792;9.172;2024-03-07T15:48:16;97641.95;;;17.24;73.21
60375;BME280;70244;48.792;9.172;2024-03-07T15:50:47;97639.14;;;17.21;73.29
60375;BME280;70244;48.792;9.172;2024-03-07T15:53:17;97639.15;;;17.09;73.65
60375;BME280;70244;48.792;9.172;2024-03-07T15:55:48;97638.45;;;17.33;73.04
60375;BME280;70244;48.792;9.172;2024-03-07T15:58:19;97636.47;;;17.32;72.99
60375;BME280;70244;48.792;9.172;2024-03-07T16:00:49;97636.03;;;17.28;73.78
60375;BME280;70244;48.792;9.172;2024-03-07T16:03:19;97637.90;;;17.44;73.95
60375;BME280;70244;48.792;9.172;2024-03-07T16:05:50;97633.02;;;17.73;73.24
60375;BME280;70244;48.792;9.172;2024-03-07T16:08:21;97633.35;;;17.97;72.63
60375;BME280;70244;48.792;9.172;2024-03-07T16:10:52;97631.28;;;18.07;71.96
60375;BME280;70244;48.792;9.172;2024-03-07T16:13:22;97632.47;;;18.11;71.69
60375;BME280;70244;48.792;9.172;2024-03-07T16:15:53;97633.67;;;18.02;72.15
60375;BME280;70244;48.792;9.172;2024-03-07T16:18:24;97630.35;;;18.18;71.60
60375;BME280;70244;48.792;9.172;2024-03-07T16:20:54;97630.26;;;18.14;71.53
60375;BME280;70244;48.792;9.172;2024-03-07T16:23:25;97628.34;;;18.25;71.21
60375;BME280;70244;48.792;9.172;2024-03-07T16:25:55;97628.67;;;18.50;70.43
60375;BME280;70244;48.792;9.172;2024-03-07T16:28:25;97628.25;;;18.34;71.04
60375;BME280;70244;48.792;9.172;2024-03-07T16:30:55;97627.36;;;18.27;71.65
60375;BME280;70244;48.792;9.172;2024-03-07T16:33:26;97622.77;;;18.48;71.55
60375;BME280;70244;48.792;9.172;2024-03-07T16:35:56;97624.16;;;18.64;71.31
60375;BME280;70244;48.792;9.172;2024-03-07T16:38:27;97621.86;;;18.57;72.31
60375;BME280;70244;48.792;9.172;2024-03-07T16:40:57;97621.97;;;18.31;72.77
60375;BME280;70244;48.792;9.172;2024-03-07T16:43:28;97620.49;;;18.36;72.91
60375;BME280;70244;48.792;9.172;2024-03-07T16:45:58;97623.74;;;18.61;73.13
60375;BME280;70244;48.792;9.172;2024-03-07T16:48:29;97618.75;;;18.90;72.77
60375;BME280;70244;48.792;9.172;2024-03-07T16:50:59;97625.59;;;19.04;72.71
60375;BME280;70244;48.792;9.172;2024-03-07T16:53:29;97625.33;;;19.27;72.95
60375;BME280;70244;48.792;9.172;2024-03-07T16:56:00;97628.75;;;19.41;74.14
60375;BME280;70244;48.792;9.172;2024-03-07T16:58:30;97626.58;;;19.06;74.07
60375;BME280;70244;48.792;9.172;2024-03-07T17:01:01;97623.60;;;18.43;77.51
60375;BME280;70244;48.792;9.172;2024-03-07T17:03:31;97624.28;;;18.29;78.46
60375;BME280;70244;48.792;9.172;2024-03-07T17:06:02;97620.91;;;18.36;77.99
60375;BME280;70244;48.792;9.172;2024-03-07T17:08:31;97619.42;;;18.95;76.81
60375;BME280;70244;48.792;9.172;2024-03-07T17:11:02;97620.11;;;19.10;76.67
60375;BME280;70244;48.792;9.172;2024-03-07T17:13:32;97616.14;;;18.89;76.21
60375;BME280;70244;48.792;9.172;2024-03-07T17:16:04;97619.90;;;18.63;78.17
60375;BME280;70244;48.792;9.172;2024-03-07T17:18:34;97623.33;;;18.51;78.41
60375;BME280;70244;48.792;9.172;2024-03-07T17:21:04;97620.68;;;18.51;78.49
60375;BME280;70244;48.792;9.172;2024-03-07T17:23:34;97623.32;;;18.52;78.95
60375;BME280;70244;48.792;9.172;2024-03-07T17:26:05;97625.94;;;18.30;79.65
60375;BME280;70244;48.792;9.172;2024-03-07T17:28:35;97625.27;;;18.84;78.95
60375;BME280;70244;48.792;9.172;2024-03-07T17:31:06;97621.87;;;18.95;75.06
60375;BME280;70244;48.792;9.172;2024-03-07T17:33:36;97623.52;;;18.64;75.60
60375;BME280;70244;48.792;9.172;2024-03-07T17:36:07;97623.06;;;18.85;75.47
60375;BME280;70244;48.792;9.172;2024-03-07T17:38:37;97623.96;;;18.96;75.81
60375;BME280;70244;48.792;9.172;2024-03-07T17:41:08;97628.02;;;18.80;75.84
60375;BME280;70244;48.792;9.172;2024-03-07T17:43:38;97629.53;;;18.76;75.60
60375;BME280;70244;48.792;9.172;2024-03-07T17:46:08;97632.07;;;18.78;74.59
60375;BME280;70244;48.792;9.172;2024-03-07T17:48:40;97632.35;;;18.75;75.24
60375;BME280;70244;48.792;9.172;2024-03-07T17:51:10;97634.13;;;18.65;75.56
60375;BME280;70244;48.792;9.172;2024-03-07T17:53:40;97635.46;;;18.67;75.23
60375;BME280;70244;48.792;9.172;2024-03-07T17:56:11;97637.65;;;18.78;74.87
60375;BME280;70244;48.792;9.172;2024-03-07T17:58:41;97636.26;;;18.47;76.37
60375;BME280;70244;48.792;9.172;2024-03-07T18:01:11;97636.54;;;18.43;76.75
60375;BME280;70244;48.792;9.172;2024-03-07T18:03:41;97634.35;;;18.50;76.93
60375;BME280;70244;48.792;9.172;2024-03-07T18:06:12;97634.81;;;18.35;77.11
60375;BME280;70244;48.792;9.172;2024-03-07T18:08:43;97639.54;;;18.32;76.70
60375;BME280;70244;48.792;9.172;2024-03-07T18:11:13;97641.01;;;18.10;77.47
60375;BME280;70244;48.792;9.172;2024-03-07T18:13:44;97636.26;;;17.88;78.43
60375;BME280;70244;48.792;9.172;2024-03-07T18:16:14;97637.32;;;17.92;77.99
60375;BME280;70244;48.792;9.172;2024-03-07T18:18:45;97640.12;;;17.86;77.95
60375;BME280;70244;48.792;9.172;2024-03-07T18:21:15;97637.26;;;17.77;78.00
60375;BME280;70244;48.792;9.172;2024-03-07T18:23:46;97635.02;;;17.80;77.95
60375;BME280;70244;48.792;9.172;2024-03-07T18:26:16;97630.24;;;17.83;77.65
60375;BME280;70244;48.792;9.172;2024-03-07T18:28:47;97626.86;;;17.87;77.52
60375;BME280;70244;48.792;9.172;2024-03-07T18:31:17;97624.89;;;17.83;77.52
60375;BME280;70244;48.792;9.172;2024-03-07T18:33:48;97620.72;;;17.85;77.41
60375;BME280;70244;48.792;9.172;2024-03-07T18:36:19;97619.46;;;18.01;76.89
60375;BME280;70244;48.792;9.172;2024-03-07T18:38:49;97616.45;;;18.02;76.69
60375;BME280;70244;48.792;9.172;2024-03-07T18:41:20;97619.95;;;18.07;76.61
60375;BME280;70244;48.792;9.172;2024-03-07T18:43:50;97614.75;;;18.00;76.77
60375;BME280;70244;48.792;9.172;2024-03-07T18:46:21;97613.69;;;17.99;76.81
60375;BME280;70244;48.792;9.172;2024-03-07T18:48:51;97612.49;;;17.94;77.01
60375;BME280;70244;48.792;9.172;2024-03-07T18:51:21;97614.41;;;17.88;77.20
60375;BME280;70244;48.792;9.172;2024-03-07T18:53:52;97609.30;;;17.81;77.55